Victor, Washington
Current Conditions -  °F | °C
As of 11:53 PM on Thursday 30 Oct 2014 (Local Time) from KTIW Reporting Station
Light Rain Light Rain  
Wind Chill: 53°   Ceiling: 7000
Heat Index: 53°   Visibility: 10mi
Dew Point: 51°   Wind: 8mph
Humidity: 93%   Direction: 180°S
Pressure: 29.77"   Gusts: NA
Location:  47.2986°N, 122.616°W
Report Text: KTIW 310653Z AUTO 18007KT 10SM -RA SCT047 BKN070 OVC085 12/11 A2977 RMK AO2 SLP080 P0008 T01170106
Loading
Personal Weather Stations






























Interactive Weather Map
Tropical Storm Tracking
New forecast layout! Learn more

10-Day Weather Forecast

Advertisements
Track Severe Weather on mobile